sensor_id;sensor_type;location;lat;lon;timestamp;P1;durP1;ratioP1;P2;durP2;ratioP2
73154;SDS011;61364;52.418;7.382;2022-08-18T00:00:53;8.47;;;8.47;;
73154;SDS011;61364;52.418;7.382;2022-08-18T00:03:19;9.09;;;9.09;;
73154;SDS011;61364;52.418;7.382;2022-08-18T00:05:44;8.93;;;8.93;;
73154;SDS011;61364;52.418;7.382;2022-08-18T00:08:10;9.48;;;9.48;;
73154;SDS011;61364;52.418;7.382;2022-08-18T00:10:37;10.45;;;10.45;;
73154;SDS011;61364;52.418;7.382;2022-08-18T00:13:05;10.85;;;10.85;;
73154;SDS011;61364;52.418;7.382;2022-08-18T00:15:31;10.50;;;10.50;;
73154;SDS011;61364;52.418;7.382;2022-08-18T00:17:56;10.42;;;10.42;;
73154;SDS011;61364;52.418;7.382;2022-08-18T00:20:22;10.67;;;10.67;;
73154;SDS011;61364;52.418;7.382;2022-08-18T00:22:48;10.93;;;10.93;;
73154;SDS011;61364;52.418;7.382;2022-08-18T00:25:14;10.81;;;10.81;;
73154;SDS011;61364;52.418;7.382;2022-08-18T00:27:42;11.67;;;11.67;;
73154;SDS011;61364;52.418;7.382;2022-08-18T00:30:10;11.77;;;11.77;;
73154;SDS011;61364;52.418;7.382;2022-08-18T00:32:37;13.33;;;13.33;;
73154;SDS011;61364;52.418;7.382;2022-08-18T00:35:05;15.24;;;15.20;;
73154;SDS011;61364;52.418;7.382;2022-08-18T00:37:31;16.43;;;16.37;;
73154;SDS011;61364;52.418;7.382;2022-08-18T00:39:57;17.77;;;17.77;;
73154;SDS011;61364;52.418;7.382;2022-08-18T00:42:26;17.56;;;17.56;;
73154;SDS011;61364;52.418;7.382;2022-08-18T00:44:54;18.73;;;18.65;;
73154;SDS011;61364;52.418;7.382;2022-08-18T00:47:20;18.91;;;18.46;;
73154;SDS011;61364;52.418;7.382;2022-08-18T00:49:46;16.93;;;16.89;;
73154;SDS011;61364;52.418;7.382;2022-08-18T00:52:16;17.96;;;17.58;;
73154;SDS011;61364;52.418;7.382;2022-08-18T00:54:43;18.59;;;18.27;;
73154;SDS011;61364;52.418;7.382;2022-08-18T00:57:11;18.26;;;18.25;;
73154;SDS011;61364;52.418;7.382;2022-08-18T00:59:55;18.45;;;18.42;;
73154;SDS011;61364;52.418;7.382;2022-08-18T01:02:31;18.06;;;17.89;;
73154;SDS011;61364;52.418;7.382;2022-08-18T01:05:07;18.43;;;18.35;;
73154;SDS011;61364;52.418;7.382;2022-08-18T01:07:38;18.12;;;17.91;;
73154;SDS011;61364;52.418;7.382;2022-08-18T01:10:16;18.87;;;18.87;;
73154;SDS011;61364;52.418;7.382;2022-08-18T01:12:44;20.54;;;20.48;;
73154;SDS011;61364;52.418;7.382;2022-08-18T01:15:10;20.42;;;20.08;;
73154;SDS011;61364;52.418;7.382;2022-08-18T01:17:39;18.21;;;18.11;;
73154;SDS011;61364;52.418;7.382;2022-08-18T01:20:35;19.62;;;19.50;;
73154;SDS011;61364;52.418;7.382;2022-08-18T01:23:22;22.03;;;21.85;;
73154;SDS011;61364;52.418;7.382;2022-08-18T01:25:49;21.69;;;21.60;;
73154;SDS011;61364;52.418;7.382;2022-08-18T01:28:36;21.97;;;21.94;;
73154;SDS011;61364;52.418;7.382;2022-08-18T01:31:03;20.90;;;20.82;;
73154;SDS011;61364;52.418;7.382;2022-08-18T01:33:31;20.20;;;20.05;;
73154;SDS011;61364;52.418;7.382;2022-08-18T01:35:58;20.19;;;19.93;;
73154;SDS011;61364;52.418;7.382;2022-08-18T01:38:25;20.74;;;20.71;;
73154;SDS011;61364;52.418;7.382;2022-08-18T01:40:51;23.15;;;22.94;;
73154;SDS011;61364;52.418;7.382;2022-08-18T01:43:19;24.03;;;23.78;;
73154;SDS011;61364;52.418;7.382;2022-08-18T01:45:45;23.32;;;22.80;;
73154;SDS011;61364;52.418;7.382;2022-08-18T01:48:12;24.48;;;24.22;;
73154;SDS011;61364;52.418;7.382;2022-08-18T01:50:38;24.33;;;23.82;;
73154;SDS011;61364;52.418;7.382;2022-08-18T01:53:07;26.02;;;25.52;;
73154;SDS011;61364;52.418;7.382;2022-08-18T01:55:34;24.46;;;24.14;;
73154;SDS011;61364;52.418;7.382;2022-08-18T01:58:00;25.17;;;24.68;;
73154;SDS011;61364;52.418;7.382;2022-08-18T02:00:26;25.77;;;25.26;;
73154;SDS011;61364;52.418;7.382;2022-08-18T02:02:53;25.37;;;24.84;;
73154;SDS011;61364;52.418;7.382;2022-08-18T02:05:26;25.60;;;25.16;;
73154;SDS011;61364;52.418;7.382;2022-08-18T02:07:55;23.35;;;23.10;;
73154;SDS011;61364;52.418;7.382;2022-08-18T02:10:21;23.36;;;22.85;;
73154;SDS011;61364;52.418;7.382;2022-08-18T02:12:46;25.35;;;25.03;;
73154;SDS011;61364;52.418;7.382;2022-08-18T02:15:12;25.19;;;24.96;;
73154;SDS011;61364;52.418;7.382;2022-08-18T02:17:41;25.21;;;24.82;;
73154;SDS011;61364;52.418;7.382;2022-08-18T02:20:08;24.09;;;23.63;;
73154;SDS011;61364;52.418;7.382;2022-08-18T02:22:36;22.89;;;22.49;;
73154;SDS011;61364;52.418;7.382;2022-08-18T02:25:02;23.21;;;22.89;;
73154;SDS011;61364;52.418;7.382;2022-08-18T02:27:28;23.64;;;23.25;;
73154;SDS011;61364;52.418;7.382;2022-08-18T02:29:54;23.05;;;22.83;;
73154;SDS011;61364;52.418;7.382;2022-08-18T02:32:20;23.78;;;23.65;;
73154;SDS011;61364;52.418;7.382;2022-08-18T02:34:45;24.77;;;24.28;;
73154;SDS011;61364;52.418;7.382;2022-08-18T02:37:10;24.15;;;23.82;;
73154;SDS011;61364;52.418;7.382;2022-08-18T02:39:36;23.83;;;23.49;;
73154;SDS011;61364;52.418;7.382;2022-08-18T02:42:06;23.42;;;23.29;;
73154;SDS011;61364;52.418;7.382;2022-08-18T02:44:31;23.27;;;22.83;;
73154;SDS011;61364;52.418;7.382;2022-08-18T02:46:57;23.59;;;23.13;;
73154;SDS011;61364;52.418;7.382;2022-08-18T02:49:23;23.07;;;22.68;;
73154;SDS011;61364;52.418;7.382;2022-08-18T02:51:52;20.41;;;20.24;;
73154;SDS011;61364;52.418;7.382;2022-08-18T02:54:19;21.98;;;21.69;;
73154;SDS011;61364;52.418;7.382;2022-08-18T02:56:48;21.27;;;20.85;;
73154;SDS011;61364;52.418;7.382;2022-08-18T02:59:16;23.25;;;22.97;;
73154;SDS011;61364;52.418;7.382;2022-08-18T03:01:45;24.78;;;24.02;;
73154;SDS011;61364;52.418;7.382;2022-08-18T03:04:13;23.48;;;22.91;;
73154;SDS011;61364;52.418;7.382;2022-08-18T03:06:40;22.61;;;22.34;;
73154;SDS011;61364;52.418;7.382;2022-08-18T03:09:07;23.33;;;22.86;;
73154;SDS011;61364;52.418;7.382;2022-08-18T03:11:33;21.43;;;21.10;;
73154;SDS011;61364;52.418;7.382;2022-08-18T03:13:59;22.62;;;22.31;;
73154;SDS011;61364;52.418;7.382;2022-08-18T03:16:25;20.33;;;20.14;;
73154;SDS011;61364;52.418;7.382;2022-08-18T03:18:52;21.79;;;21.49;;
73154;SDS011;61364;52.418;7.382;2022-08-18T03:21:19;22.32;;;22.15;;
73154;SDS011;61364;52.418;7.382;2022-08-18T03:23:46;22.85;;;22.53;;
73154;SDS011;61364;52.418;7.382;2022-08-18T03:26:12;21.04;;;20.59;;
73154;SDS011;61364;52.418;7.382;2022-08-18T03:28:39;21.94;;;21.48;;
73154;SDS011;61364;52.418;7.382;2022-08-18T03:31:06;22.44;;;21.99;;
73154;SDS011;61364;52.418;7.382;2022-08-18T03:33:32;22.04;;;21.76;;
73154;SDS011;61364;52.418;7.382;2022-08-18T03:36:05;21.99;;;21.76;;
73154;SDS011;61364;52.418;7.382;2022-08-18T03:38:31;22.26;;;21.92;;
73154;SDS011;61364;52.418;7.382;2022-08-18T03:40:57;22.64;;;22.40;;
73154;SDS011;61364;52.418;7.382;2022-08-18T03:43:22;23.54;;;23.09;;
73154;SDS011;61364;52.418;7.382;2022-08-18T03:45:49;23.54;;;22.98;;
73154;SDS011;61364;52.418;7.382;2022-08-18T03:48:14;23.83;;;23.19;;
73154;SDS011;61364;52.418;7.382;2022-08-18T03:50:41;22.34;;;21.99;;
73154;SDS011;61364;52.418;7.382;2022-08-18T03:53:06;22.71;;;22.52;;
73154;SDS011;61364;52.418;7.382;2022-08-18T03:55:31;22.74;;;22.54;;
73154;SDS011;61364;52.418;7.382;2022-08-18T03:57:58;22.01;;;21.60;;
73154;SDS011;61364;52.418;7.382;2022-08-18T04:00:23;23.35;;;22.86;;
73154;SDS011;61364;52.418;7.382;2022-08-18T04:02:51;23.20;;;22.61;;
73154;SDS011;61364;52.418;7.382;2022-08-18T04:05:17;21.83;;;21.61;;
73154;SDS011;61364;52.418;7.382;2022-08-18T04:07:42;21.73;;;21.42;;
73154;SDS011;61364;52.418;7.382;2022-08-18T04:10:08;23.33;;;22.81;;
73154;SDS011;61364;52.418;7.382;2022-08-18T04:12:34;23.22;;;23.05;;
73154;SDS011;61364;52.418;7.382;2022-08-18T04:15:04;24.67;;;24.33;;
73154;SDS011;61364;52.418;7.382;2022-08-18T04:17:30;25.42;;;25.02;;
73154;SDS011;61364;52.418;7.382;2022-08-18T04:19:57;23.73;;;23.35;;
73154;SDS011;61364;52.418;7.382;2022-08-18T04:22:22;24.12;;;23.79;;
73154;SDS011;61364;52.418;7.382;2022-08-18T04:24:49;24.61;;;24.34;;
73154;SDS011;61364;52.418;7.382;2022-08-18T04:27:15;24.65;;;24.47;;
73154;SDS011;61364;52.418;7.382;2022-08-18T04:29:40;26.52;;;26.02;;
73154;SDS011;61364;52.418;7.382;2022-08-18T04:32:06;28.09;;;27.31;;
73154;SDS011;61364;52.418;7.382;2022-08-18T04:34:32;27.64;;;26.93;;
73154;SDS011;61364;52.418;7.382;2022-08-18T04:36:58;26.05;;;25.49;;
73154;SDS011;61364;52.418;7.382;2022-08-18T04:39:23;27.30;;;27.04;;
73154;SDS011;61364;52.418;7.382;2022-08-18T04:41:50;27.46;;;27.12;;
73154;SDS011;61364;52.418;7.382;2022-08-18T04:44:15;27.86;;;26.90;;
73154;SDS011;61364;52.418;7.382;2022-08-18T04:46:46;28.94;;;28.43;;
73154;SDS011;61364;52.418;7.382;2022-08-18T04:49:13;27.84;;;27.39;;
73154;SDS011;61364;52.418;7.382;2022-08-18T04:51:41;27.02;;;26.50;;
73154;SDS011;61364;52.418;7.382;2022-08-18T04:54:07;28.34;;;28.11;;
73154;SDS011;61364;52.418;7.382;2022-08-18T04:56:35;27.18;;;26.70;;
73154;SDS011;61364;52.418;7.382;2022-08-18T04:59:06;26.59;;;26.13;;
73154;SDS011;61364;52.418;7.382;2022-08-18T05:01:34;27.79;;;27.37;;
73154;SDS011;61364;52.418;7.382;2022-08-18T05:04:01;27.47;;;27.37;;
73154;SDS011;61364;52.418;7.382;2022-08-18T05:06:26;27.31;;;26.92;;
73154;SDS011;61364;52.418;7.382;2022-08-18T05:08:56;28.38;;;28.03;;
73154;SDS011;61364;52.418;7.382;2022-08-18T05:11:23;27.01;;;26.64;;
73154;SDS011;61364;52.418;7.382;2022-08-18T05:13:50;27.63;;;27.44;;
73154;SDS011;61364;52.418;7.382;2022-08-18T05:16:19;27.75;;;27.30;;
73154;SDS011;61364;52.418;7.382;2022-08-18T05:18:45;28.23;;;27.60;;
73154;SDS011;61364;52.418;7.382;2022-08-18T05:21:11;28.40;;;27.75;;
73154;SDS011;61364;52.418;7.382;2022-08-18T05:23:40;29.16;;;28.65;;
73154;SDS011;61364;52.418;7.382;2022-08-18T05:26:06;28.80;;;28.10;;
73154;SDS011;61364;52.418;7.382;2022-08-18T05:28:33;26.74;;;26.01;;
73154;SDS011;61364;52.418;7.382;2022-08-18T05:31:05;27.66;;;27.03;;
73154;SDS011;61364;52.418;7.382;2022-08-18T05:33:31;27.65;;;27.20;;
73154;SDS011;61364;52.418;7.382;2022-08-18T05:36:02;25.45;;;24.99;;
73154;SDS011;61364;52.418;7.382;2022-08-18T05:41:38;26.49;;;26.01;;
73154;SDS011;61364;52.418;7.382;2022-08-18T05:44:06;26.49;;;25.98;;
73154;SDS011;61364;52.418;7.382;2022-08-18T05:49:11;25.51;;;24.63;;
73154;SDS011;61364;52.418;7.382;2022-08-18T05:51:43;24.81;;;24.44;;
73154;SDS011;61364;52.418;7.382;2022-08-18T05:54:10;24.82;;;24.28;;
73154;SDS011;61364;52.418;7.382;2022-08-18T05:56:56;23.75;;;23.34;;
73154;SDS011;61364;52.418;7.382;2022-08-18T05:59:26;24.80;;;24.41;;
73154;SDS011;61364;52.418;7.382;2022-08-18T06:02:06;23.34;;;23.03;;
73154;SDS011;61364;52.418;7.382;2022-08-18T06:04:42;24.24;;;23.75;;
73154;SDS011;61364;52.418;7.382;2022-08-18T06:07:13;22.91;;;22.50;;
73154;SDS011;61364;52.418;7.382;2022-08-18T06:09:51;23.85;;;23.14;;
73154;SDS011;61364;52.418;7.382;2022-08-18T06:12:20;22.95;;;22.69;;
73154;SDS011;61364;52.418;7.382;2022-08-18T06:14:48;23.14;;;22.71;;
73154;SDS011;61364;52.418;7.382;2022-08-18T06:17:22;22.55;;;22.05;;
73154;SDS011;61364;52.418;7.382;2022-08-18T06:19:59;22.61;;;22.35;;
73154;SDS011;61364;52.418;7.382;2022-08-18T06:27:45;21.41;;;21.09;;
73154;SDS011;61364;52.418;7.382;2022-08-18T06:35:35;20.92;;;20.60;;
73154;SDS011;61364;52.418;7.382;2022-08-18T06:43:38;19.57;;;19.19;;
73154;SDS011;61364;52.418;7.382;2022-08-18T06:46:08;18.28;;;18.23;;
73154;SDS011;61364;52.418;7.382;2022-08-18T06:48:44;17.97;;;17.96;;
73154;SDS011;61364;52.418;7.382;2022-08-18T06:51:17;17.50;;;17.26;;
73154;SDS011;61364;52.418;7.382;2022-08-18T06:56:34;16.80;;;16.39;;
73154;SDS011;61364;52.418;7.382;2022-08-18T06:59:18;16.73;;;16.25;;
73154;SDS011;61364;52.418;7.382;2022-08-18T07:01:45;17.02;;;16.86;;
73154;SDS011;61364;52.418;7.382;2022-08-18T07:06:57;15.10;;;14.97;;
73154;SDS011;61364;52.418;7.382;2022-08-18T07:09:23;16.11;;;16.02;;
73154;SDS011;61364;52.418;7.382;2022-08-18T07:11:59;16.29;;;15.91;;
73154;SDS011;61364;52.418;7.382;2022-08-18T07:14:25;16.80;;;16.46;;
73154;SDS011;61364;52.418;7.382;2022-08-18T07:17:12;16.13;;;15.95;;
73154;SDS011;61364;52.418;7.382;2022-08-18T07:19:38;14.96;;;14.94;;
73154;SDS011;61364;52.418;7.382;2022-08-18T07:22:07;14.35;;;14.23;;
73154;SDS011;61364;52.418;7.382;2022-08-18T07:24:57;13.83;;;13.67;;
73154;SDS011;61364;52.418;7.382;2022-08-18T07:30:08;13.35;;;13.34;;
73154;SDS011;61364;52.418;7.382;2022-08-18T07:35:05;12.74;;;12.67;;
73154;SDS011;61364;52.418;7.382;2022-08-18T07:43:00;12.39;;;12.39;;
73154;SDS011;61364;52.418;7.382;2022-08-18T07:45:38;12.40;;;12.40;;
73154;SDS011;61364;52.418;7.382;2022-08-18T07:53:12;12.14;;;12.14;;
73154;SDS011;61364;52.418;7.382;2022-08-18T07:55:44;12.44;;;12.39;;
73154;SDS011;61364;52.418;7.382;2022-08-18T08:05:46;11.85;;;11.85;;
73154;SDS011;61364;52.418;7.382;2022-08-18T08:16:15;13.24;;;12.98;;
73154;SDS011;61364;52.418;7.382;2022-08-18T08:18:52;12.73;;;12.60;;
73154;SDS011;61364;52.418;7.382;2022-08-18T08:21:23;12.72;;;12.72;;
73154;SDS011;61364;52.418;7.382;2022-08-18T08:24:09;11.85;;;11.71;;
73154;SDS011;61364;52.418;7.382;2022-08-18T08:26:45;12.21;;;12.05;;
73154;SDS011;61364;52.418;7.382;2022-08-18T08:29:20;12.00;;;12.00;;
73154;SDS011;61364;52.418;7.382;2022-08-18T08:32:02;12.37;;;12.36;;
73154;SDS011;61364;52.418;7.382;2022-08-18T08:37:04;12.21;;;11.93;;
73154;SDS011;61364;52.418;7.382;2022-08-18T08:42:36;12.04;;;12.01;;
73154;SDS011;61364;52.418;7.382;2022-08-18T08:44:55;11.98;;;11.91;;
73154;SDS011;61364;52.418;7.382;2022-08-18T08:50:18;11.75;;;11.75;;
73154;SDS011;61364;52.418;7.382;2022-08-18T08:55:20;11.85;;;11.76;;
73154;SDS011;61364;52.418;7.382;2022-08-18T09:00:18;12.83;;;12.78;;
73154;SDS011;61364;52.418;7.382;2022-08-18T09:05:35;11.40;;;11.40;;
73154;SDS011;61364;52.418;7.382;2022-08-18T09:13:31;11.36;;;11.35;;
73154;SDS011;61364;52.418;7.382;2022-08-18T09:15:58;11.95;;;11.95;;
73154;SDS011;61364;52.418;7.382;2022-08-18T09:21:05;12.98;;;12.83;;
73154;SDS011;61364;52.418;7.382;2022-08-18T09:23:45;11.61;;;11.61;;
73154;SDS011;61364;52.418;7.382;2022-08-18T09:29:04;12.67;;;12.64;;
73154;SDS011;61364;52.418;7.382;2022-08-18T09:31:37;11.69;;;11.66;;
73154;SDS011;61364;52.418;7.382;2022-08-18T09:34:08;12.16;;;12.08;;
73154;SDS011;61364;52.418;7.382;2022-08-18T09:36:46;11.81;;;11.72;;
73154;SDS011;61364;52.418;7.382;2022-08-18T09:39:35;12.25;;;12.25;;
73154;SDS011;61364;52.418;7.382;2022-08-18T09:42:37;12.48;;;12.48;;
73154;SDS011;61364;52.418;7.382;2022-08-18T09:45:10;12.04;;;11.94;;
73154;SDS011;61364;52.418;7.382;2022-08-18T09:51:14;11.24;;;11.24;;
73154;SDS011;61364;52.418;7.382;2022-08-18T09:53:30;11.07;;;11.07;;
73154;SDS011;61364;52.418;7.382;2022-08-18T09:55:57;11.07;;;11.07;;
73154;SDS011;61364;52.418;7.382;2022-08-18T10:03:33;9.76;;;9.76;;
73154;SDS011;61364;52.418;7.382;2022-08-18T10:06:04;10.15;;;10.15;;
73154;SDS011;61364;52.418;7.382;2022-08-18T10:08:37;10.17;;;10.17;;
73154;SDS011;61364;52.418;7.382;2022-08-18T10:13:50;10.52;;;10.52;;
73154;SDS011;61364;52.418;7.382;2022-08-18T10:19:03;9.54;;;9.53;;
73154;SDS011;61364;52.418;7.382;2022-08-18T10:24:17;9.53;;;9.53;;
73154;SDS011;61364;52.418;7.382;2022-08-18T10:29:41;10.39;;;10.39;;
73154;SDS011;61364;52.418;7.382;2022-08-18T10:34:43;9.18;;;9.18;;
73154;SDS011;61364;52.418;7.382;2022-08-18T10:44:49;8.65;;;8.65;;
73154;SDS011;61364;52.418;7.382;2022-08-18T10:47:22;8.65;;;8.65;;
73154;SDS011;61364;52.418;7.382;2022-08-18T10:49:49;8.60;;;8.60;;
73154;SDS011;61364;52.418;7.382;2022-08-18T10:55:13;9.49;;;9.49;;
73154;SDS011;61364;52.418;7.382;2022-08-18T11:00:12;6.87;;;6.87;;
73154;SDS011;61364;52.418;7.382;2022-08-18T11:05:25;6.23;;;6.23;;
73154;SDS011;61364;52.418;7.382;2022-08-18T11:07:59;6.04;;;6.04;;
73154;SDS011;61364;52.418;7.382;2022-08-18T11:13:03;5.72;;;5.72;;
73154;SDS011;61364;52.418;7.382;2022-08-18T11:20:33;5.86;;;5.86;;
73154;SDS011;61364;52.418;7.382;2022-08-18T11:22:59;6.09;;;6.09;;
73154;SDS011;61364;52.418;7.382;2022-08-18T11:25:27;6.22;;;6.22;;
73154;SDS011;61364;52.418;7.382;2022-08-18T11:27:55;6.19;;;6.19;;
73154;SDS011;61364;52.418;7.382;2022-08-18T11:30:22;6.42;;;6.42;;
73154;SDS011;61364;52.418;7.382;2022-08-18T11:32:51;6.27;;;6.27;;
73154;SDS011;61364;52.418;7.382;2022-08-18T11:35:18;5.89;;;5.89;;
73154;SDS011;61364;52.418;7.382;2022-08-18T11:37:55;6.20;;;6.20;;
73154;SDS011;61364;52.418;7.382;2022-08-18T11:45:48;5.63;;;5.63;;
73154;SDS011;61364;52.418;7.382;2022-08-18T11:58:41;5.13;;;5.13;;
73154;SDS011;61364;52.418;7.382;2022-08-18T12:01:16;5.00;;;5.00;;
73154;SDS011;61364;52.418;7.382;2022-08-18T12:04:41;4.92;;;4.92;;
73154;SDS011;61364;52.418;7.382;2022-08-18T12:09:26;4.86;;;4.86;;
73154;SDS011;61364;52.418;7.382;2022-08-18T12:11:55;4.84;;;4.84;;
73154;SDS011;61364;52.418;7.382;2022-08-18T12:14:22;4.71;;;4.71;;
73154;SDS011;61364;52.418;7.382;2022-08-18T12:16:49;4.78;;;4.78;;
73154;SDS011;61364;52.418;7.382;2022-08-18T12:19:16;5.33;;;5.33;;
73154;SDS011;61364;52.418;7.382;2022-08-18T12:21:44;5.27;;;5.27;;
73154;SDS011;61364;52.418;7.382;2022-08-18T12:24:25;5.09;;;5.09;;
73154;SDS011;61364;52.418;7.382;2022-08-18T12:26:52;5.06;;;5.06;;
73154;SDS011;61364;52.418;7.382;2022-08-18T12:29:18;5.25;;;5.25;;
73154;SDS011;61364;52.418;7.382;2022-08-18T12:31:44;5.22;;;5.22;;
73154;SDS011;61364;52.418;7.382;2022-08-18T12:34:10;5.07;;;5.07;;
73154;SDS011;61364;52.418;7.382;2022-08-18T12:36:36;5.29;;;5.29;;
73154;SDS011;61364;52.418;7.382;2022-08-18T12:39:03;5.43;;;5.43;;
73154;SDS011;61364;52.418;7.382;2022-08-18T12:41:28;5.08;;;5.08;;
73154;SDS011;61364;52.418;7.382;2022-08-18T12:43:54;5.06;;;5.06;;
73154;SDS011;61364;52.418;7.382;2022-08-18T12:46:19;4.58;;;4.58;;
73154;SDS011;61364;52.418;7.382;2022-08-18T12:48:46;4.48;;;4.48;;
73154;SDS011;61364;52.418;7.382;2022-08-18T12:51:13;4.42;;;4.42;;
73154;SDS011;61364;52.418;7.382;2022-08-18T12:53:40;4.26;;;4.26;;
73154;SDS011;61364;52.418;7.382;2022-08-18T12:56:06;4.34;;;4.34;;
73154;SDS011;61364;52.418;7.382;2022-08-18T12:58:37;4.19;;;4.19;;
73154;SDS011;61364;52.418;7.382;2022-08-18T13:01:03;4.27;;;4.27;;
73154;SDS011;61364;52.418;7.382;2022-08-18T13:03:28;4.49;;;4.49;;
73154;SDS011;61364;52.418;7.382;2022-08-18T13:05:54;4.18;;;4.18;;
73154;SDS011;61364;52.418;7.382;2022-08-18T13:08:20;4.10;;;4.10;;
73154;SDS011;61364;52.418;7.382;2022-08-18T13:10:47;4.25;;;4.25;;
73154;SDS011;61364;52.418;7.382;2022-08-18T13:13:16;4.38;;;4.38;;
73154;SDS011;61364;52.418;7.382;2022-08-18T13:15:43;4.87;;;4.87;;
73154;SDS011;61364;52.418;7.382;2022-08-18T13:18:10;4.67;;;4.67;;
73154;SDS011;61364;52.418;7.382;2022-08-18T13:20:37;4.65;;;4.65;;
73154;SDS011;61364;52.418;7.382;2022-08-18T13:23:03;4.89;;;4.89;;
73154;SDS011;61364;52.418;7.382;2022-08-18T13:25:29;4.87;;;4.87;;
73154;SDS011;61364;52.418;7.382;2022-08-18T13:27:55;4.83;;;4.83;;
73154;SDS011;61364;52.418;7.382;2022-08-18T13:30:22;4.79;;;4.79;;
73154;SDS011;61364;52.418;7.382;2022-08-18T13:32:48;4.93;;;4.93;;
73154;SDS011;61364;52.418;7.382;2022-08-18T13:35:14;5.11;;;5.11;;
73154;SDS011;61364;52.418;7.382;2022-08-18T13:37:40;4.96;;;4.96;;
73154;SDS011;61364;52.418;7.382;2022-08-18T13:40:07;5.08;;;5.08;;
73154;SDS011;61364;52.418;7.382;2022-08-18T13:42:40;5.14;;;5.14;;
73154;SDS011;61364;52.418;7.382;2022-08-18T13:45:07;5.54;;;5.54;;
73154;SDS011;61364;52.418;7.382;2022-08-18T13:47:32;5.55;;;5.55;;
73154;SDS011;61364;52.418;7.382;2022-08-18T13:49:59;5.39;;;5.39;;
73154;SDS011;61364;52.418;7.382;2022-08-18T13:52:25;5.50;;;5.50;;
73154;SDS011;61364;52.418;7.382;2022-08-18T13:54:50;5.28;;;5.28;;
73154;SDS011;61364;52.418;7.382;2022-08-18T13:57:17;5.18;;;5.18;;
73154;SDS011;61364;52.418;7.382;2022-08-18T13:59:43;5.24;;;5.24;;
73154;SDS011;61364;52.418;7.382;2022-08-18T14:02:10;4.99;;;4.99;;
73154;SDS011;61364;52.418;7.382;2022-08-18T14:04:36;5.10;;;5.10;;
73154;SDS011;61364;52.418;7.382;2022-08-18T14:07:03;4.62;;;4.62;;
73154;SDS011;61364;52.418;7.382;2022-08-18T14:09:29;5.18;;;5.18;;
73154;SDS011;61364;52.418;7.382;2022-08-18T14:11:56;5.27;;;5.27;;
73154;SDS011;61364;52.418;7.382;2022-08-18T14:14:22;5.25;;;5.25;;
73154;SDS011;61364;52.418;7.382;2022-08-18T14:16:48;4.70;;;4.70;;
73154;SDS011;61364;52.418;7.382;2022-08-18T14:19:13;5.03;;;5.03;;
73154;SDS011;61364;52.418;7.382;2022-08-18T14:21:57;5.54;;;5.54;;
73154;SDS011;61364;52.418;7.382;2022-08-18T14:24:42;5.50;;;5.50;;
73154;SDS011;61364;52.418;7.382;2022-08-18T14:29:57;5.44;;;5.44;;
73154;SDS011;61364;52.418;7.382;2022-08-18T14:32:23;5.40;;;5.40;;
73154;SDS011;61364;52.418;7.382;2022-08-18T14:34:57;4.81;;;4.81;;
73154;SDS011;61364;52.418;7.382;2022-08-18T14:37:24;4.74;;;4.74;;
73154;SDS011;61364;52.418;7.382;2022-08-18T14:39:50;4.59;;;4.59;;
73154;SDS011;61364;52.418;7.382;2022-08-18T14:42:16;4.69;;;4.69;;
73154;SDS011;61364;52.418;7.382;2022-08-18T14:44:43;4.62;;;4.62;;
73154;SDS011;61364;52.418;7.382;2022-08-18T14:47:10;4.50;;;4.50;;
73154;SDS011;61364;52.418;7.382;2022-08-18T14:49:35;4.33;;;4.33;;
73154;SDS011;61364;52.418;7.382;2022-08-18T14:52:01;4.12;;;4.12;;
73154;SDS011;61364;52.418;7.382;2022-08-18T14:54:27;3.94;;;3.94;;
73154;SDS011;61364;52.418;7.382;2022-08-18T14:56:53;3.86;;;3.86;;
73154;SDS011;61364;52.418;7.382;2022-08-18T14:59:19;4.00;;;4.00;;
73154;SDS011;61364;52.418;7.382;2022-08-18T15:01:44;3.89;;;3.89;;
73154;SDS011;61364;52.418;7.382;2022-08-18T15:04:10;3.76;;;3.76;;
73154;SDS011;61364;52.418;7.382;2022-08-18T15:06:36;3.70;;;3.70;;
73154;SDS011;61364;52.418;7.382;2022-08-18T15:09:01;3.82;;;3.82;;
73154;SDS011;61364;52.418;7.382;2022-08-18T15:11:27;3.71;;;3.71;;
73154;SDS011;61364;52.418;7.382;2022-08-18T15:13:52;3.76;;;3.76;;
73154;SDS011;61364;52.418;7.382;2022-08-18T15:16:19;3.26;;;3.26;;
73154;SDS011;61364;52.418;7.382;2022-08-18T15:18:47;3.32;;;3.32;;
73154;SDS011;61364;52.418;7.382;2022-08-18T15:21:13;3.12;;;3.12;;
73154;SDS011;61364;52.418;7.382;2022-08-18T15:23:57;3.09;;;3.09;;
73154;SDS011;61364;52.418;7.382;2022-08-18T15:26:42;2.88;;;2.88;;
73154;SDS011;61364;52.418;7.382;2022-08-18T15:29:08;3.04;;;3.04;;
73154;SDS011;61364;52.418;7.382;2022-08-18T15:31:35;2.91;;;2.91;;
73154;SDS011;61364;52.418;7.382;2022-08-18T15:34:01;2.59;;;2.59;;
73154;SDS011;61364;52.418;7.382;2022-08-18T15:36:27;2.79;;;2.79;;
73154;SDS011;61364;52.418;7.382;2022-08-18T15:38:59;2.96;;;2.96;;
73154;SDS011;61364;52.418;7.382;2022-08-18T15:41:35;2.85;;;2.85;;
73154;SDS011;61364;52.418;7.382;2022-08-18T15:44:02;2.65;;;2.65;;
73154;SDS011;61364;52.418;7.382;2022-08-18T15:46:30;2.95;;;2.95;;
73154;SDS011;61364;52.418;7.382;2022-08-18T15:48:56;3.06;;;3.06;;
73154;SDS011;61364;52.418;7.382;2022-08-18T15:51:22;2.68;;;2.68;;
73154;SDS011;61364;52.418;7.382;2022-08-18T15:53:47;2.79;;;2.79;;
73154;SDS011;61364;52.418;7.382;2022-08-18T15:56:14;2.94;;;2.94;;
73154;SDS011;61364;52.418;7.382;2022-08-18T15:58:41;2.70;;;2.70;;
73154;SDS011;61364;52.418;7.382;2022-08-18T16:01:10;2.73;;;2.73;;
73154;SDS011;61364;52.418;7.382;2022-08-18T16:03:35;2.59;;;2.59;;
73154;SDS011;61364;52.418;7.382;2022-08-18T16:06:03;2.56;;;2.56;;
73154;SDS011;61364;52.418;7.382;2022-08-18T16:08:30;2.58;;;2.58;;
73154;SDS011;61364;52.418;7.382;2022-08-18T16:10:55;2.61;;;2.61;;
73154;SDS011;61364;52.418;7.382;2022-08-18T16:13:21;2.42;;;2.42;;
73154;SDS011;61364;52.418;7.382;2022-08-18T16:15:48;2.51;;;2.51;;
73154;SDS011;61364;52.418;7.382;2022-08-18T16:18:18;2.68;;;2.68;;
73154;SDS011;61364;52.418;7.382;2022-08-18T16:20:46;2.60;;;2.60;;
73154;SDS011;61364;52.418;7.382;2022-08-18T16:23:13;2.94;;;2.94;;
73154;SDS011;61364;52.418;7.382;2022-08-18T16:25:40;2.88;;;2.88;;
73154;SDS011;61364;52.418;7.382;2022-08-18T16:28:07;2.99;;;2.99;;
73154;SDS011;61364;52.418;7.382;2022-08-18T16:30:34;3.04;;;3.04;;
73154;SDS011;61364;52.418;7.382;2022-08-18T16:33:01;3.14;;;3.14;;
73154;SDS011;61364;52.418;7.382;2022-08-18T16:35:28;3.10;;;3.10;;
73154;SDS011;61364;52.418;7.382;2022-08-18T16:37:54;3.09;;;3.09;;
73154;SDS011;61364;52.418;7.382;2022-08-18T16:40:20;3.00;;;3.00;;
73154;SDS011;61364;52.418;7.382;2022-08-18T16:42:45;3.29;;;3.29;;
73154;SDS011;61364;52.418;7.382;2022-08-18T16:45:11;3.04;;;3.04;;
73154;SDS011;61364;52.418;7.382;2022-08-18T16:47:38;2.96;;;2.96;;
73154;SDS011;61364;52.418;7.382;2022-08-18T16:50:09;3.28;;;3.28;;
73154;SDS011;61364;52.418;7.382;2022-08-18T16:52:36;3.61;;;3.61;;
73154;SDS011;61364;52.418;7.382;2022-08-18T16:55:02;3.70;;;3.70;;
73154;SDS011;61364;52.418;7.382;2022-08-18T16:57:28;3.62;;;3.62;;
73154;SDS011;61364;52.418;7.382;2022-08-18T17:00:13;3.73;;;3.73;;
73154;SDS011;61364;52.418;7.382;2022-08-18T17:03:01;3.59;;;3.59;;
73154;SDS011;61364;52.418;7.382;2022-08-18T17:05:46;3.99;;;3.99;;
73154;SDS011;61364;52.418;7.382;2022-08-18T17:08:11;3.56;;;3.56;;
73154;SDS011;61364;52.418;7.382;2022-08-18T17:10:38;3.83;;;3.83;;
73154;SDS011;61364;52.418;7.382;2022-08-18T17:13:05;3.68;;;3.68;;
73154;SDS011;61364;52.418;7.382;2022-08-18T17:15:31;3.63;;;3.63;;